Aérodrome :
LOGIN :

S'inscrire | Disclaimer

   EN    FR    IT 

 










Légende :    VFR   VFR Marginal   IFR   IFR Intensif   IFR Très Intensif
Visi : 
Plafond : 
>= 8 km
>= 3000ft
5 à 8 km
1000 à 3000 ft
1500m à 5 km
500 à 1000 ft
800 à 1500m
200 à 500 ft
< 800m
< 200 ft
Symboles :   Orages  Brouillard  Fortes neiges  Fortes précipitations  Vent > 20 kt
SIGMETs :   Divers  Orages  Givrage  Turbulence  Onde Orograph.  Cendres Volcan.







- Altitude de l'aérodrome : 1247 ft
- Code IATA : PRG


LKPR - Praha Ruzyne

DERNIER METAR :
  • 222130Z 08005KT CAVOK 17/12 Q1027 NOSIG

METARs EXPIRÉS :
  • 222100Z 09003KT 9999 FEW049 17/12 Q1027 NOSIG
  • 222030Z 00000KT CAVOK 16/12 Q1027 NOSIG
  • 222000Z VRB01KT CAVOK 18/11 Q1027 NOSIG
  • 221930Z 16003KT CAVOK 18/12 Q1027 NOSIG
  • 221900Z 12004KT CAVOK 17/11 Q1026 NOSIG

TAF TAF LKPR
Valide du 22 à 18h jusqu'au 24 à 00h UTC


221700Z 2218/2400 08006KT CAVOK
BECMG 2301/2303 34003KT 1200 BR MIFG BKN004
TEMPO 2303/2306 0500 FG OVC002
BECMG 2306/2308 04008KT CAVOK
Pas de NOTAMs connus pour ce terrain.



MET'MAP, la Météo Aéronautique d'un coup d'oeil ! - Copyright ORBIFLY Décembre 2007 - Disclaimer

ORBIFLY MET'MAP TEAM :

Programmation & Développement : Alexandra Zaïnal
Conception & Développement : Baudouin d'Aumeries
Co-Programmation & Développement : Marc-Olivier Méhu
Soutien technique & logistique : Manuel Goepfert

Contact : metmap@orbifly.com




SOURCES & CREDITS :

   NOAA